首页
METAR-TAF:

METAR-TAF

机场 :

亚美尼亚城, 哥伦比亚

纬度: 04-30N, 经度: 075-43W, 海拔: 1204米

当前天气观测

该预报发布于1小时和10分钟前的02:00 UTC
风速3节,风向
温度 23°C
湿度 83%
气压 1017 hPa
能见度10公里或以上
散云层高于2300英尺
散云层高于10000英尺

METAR: SKAR 250200Z 18003KT 9999 SCT023 SCT100 23/20 Q1017

时间: 22:10 (03:10 UTC)

预报

该预报发布于4小时和40分钟前的22:30 UTC
预报有效从25日的 00点(UTC)到 25日的 24点(UTC)
风速节,风向
能见度10公里或以上
散云层高于2000英尺
多云层高于9000英尺
短暂存在
从 25日的 02点(UTC)到 25日的 05点(UTC)
散云层高于2000英尺, 塔状积云.
毛毛雨
短暂存在
从 25日的 21点(UTC)到 25日的 24点(UTC)
散云层高于2000英尺, 塔状积云.
毛毛雨,

TAF: SKAR 242230Z 2500/2524 00000KT 9999 SCT020 BKN090 TEMPO 2502/2505 DZ SCT020TCU TEMPO 2521/2524 DZ SCT020TCU TX28/2520Z TN21/2510Z

超过4000个机场的气象观测和天气预报(METAR&TAF报告)。

可查询的气象台以黄色和红色小点在地图上表示。

将鼠标移到小点上方,可查看气象台名称。

然后点击查看天气观测和预报。

如需切换地图:点击带黑十字的绿色按钮放大地图;点击带横线的绿色按钮缩小地图;或者点击绿色箭头查看邻近地区的地图。


METAR-TAF: